sensor_id;sensor_type;location;lat;lon;timestamp;P1;durP1;ratioP1;P2;durP2;ratioP2
5965;SDS011;3009;43.224;27.976;2023-03-14T00:01:21;14.10;;;3.80;;
5965;SDS011;3009;43.224;27.976;2023-03-14T00:03:51;11.50;;;5.07;;
5965;SDS011;3009;43.224;27.976;2023-03-14T00:06:20;5.43;;;4.53;;
5965;SDS011;3009;43.224;27.976;2023-03-14T00:08:52;8.83;;;5.30;;
5965;SDS011;3009;43.224;27.976;2023-03-14T00:11:22;11.33;;;4.83;;
5965;SDS011;3009;43.224;27.976;2023-03-14T00:13:51;6.80;;;4.40;;
5965;SDS011;3009;43.224;27.976;2023-03-14T00:16:20;6.80;;;4.70;;
5965;SDS011;3009;43.224;27.976;2023-03-14T00:18:49;11.10;;;5.90;;
5965;SDS011;3009;43.224;27.976;2023-03-14T00:21:18;6.70;;;4.33;;
5965;SDS011;3009;43.224;27.976;2023-03-14T00:23:48;7.10;;;5.20;;
5965;SDS011;3009;43.224;27.976;2023-03-14T00:26:23;11.83;;;5.80;;
5965;SDS011;3009;43.224;27.976;2023-03-14T00:28:55;11.10;;;6.57;;
5965;SDS011;3009;43.224;27.976;2023-03-14T00:31:28;7.83;;;6.30;;
5965;SDS011;3009;43.224;27.976;2023-03-14T00:33:57;8.00;;;6.20;;
5965;SDS011;3009;43.224;27.976;2023-03-14T00:36:26;15.43;;;6.60;;
5965;SDS011;3009;43.224;27.976;2023-03-14T00:38:55;6.97;;;4.97;;
5965;SDS011;3009;43.224;27.976;2023-03-14T00:41:29;6.20;;;5.07;;
5965;SDS011;3009;43.224;27.976;2023-03-14T00:43:58;6.00;;;4.83;;
5965;SDS011;3009;43.224;27.976;2023-03-14T00:46:27;6.83;;;5.03;;
5965;SDS011;3009;43.224;27.976;2023-03-14T00:48:57;14.33;;;4.27;;
5965;SDS011;3009;43.224;27.976;2023-03-14T00:51:27;5.73;;;4.37;;
5965;SDS011;3009;43.224;27.976;2023-03-14T00:53:57;4.50;;;4.10;;
5965;SDS011;3009;43.224;27.976;2023-03-14T00:56:26;4.93;;;4.53;;
5965;SDS011;3009;43.224;27.976;2023-03-14T00:58:58;6.43;;;4.90;;
5965;SDS011;3009;43.224;27.976;2023-03-14T01:01:27;3.93;;;3.60;;
5965;SDS011;3009;43.224;27.976;2023-03-14T01:04:01;4.20;;;3.80;;
5965;SDS011;3009;43.224;27.976;2023-03-14T01:06:30;4.07;;;3.67;;
5965;SDS011;3009;43.224;27.976;2023-03-14T01:08:59;5.77;;;3.43;;
5965;SDS011;3009;43.224;27.976;2023-03-14T01:11:30;4.97;;;4.20;;
5965;SDS011;3009;43.224;27.976;2023-03-14T01:14:02;3.73;;;3.40;;
5965;SDS011;3009;43.224;27.976;2023-03-14T01:16:33;5.50;;;4.10;;
5965;SDS011;3009;43.224;27.976;2023-03-14T01:19:02;5.30;;;4.37;;
5965;SDS011;3009;43.224;27.976;2023-03-14T01:21:32;5.10;;;4.20;;
5965;SDS011;3009;43.224;27.976;2023-03-14T01:24:02;6.50;;;4.30;;
5965;SDS011;3009;43.224;27.976;2023-03-14T01:26:33;4.77;;;4.33;;
5965;SDS011;3009;43.224;27.976;2023-03-14T01:29:04;4.67;;;3.90;;
5965;SDS011;3009;43.224;27.976;2023-03-14T01:31:32;6.50;;;3.97;;
5965;SDS011;3009;43.224;27.976;2023-03-14T01:34:00;5.90;;;4.53;;
5965;SDS011;3009;43.224;27.976;2023-03-14T01:36:30;4.70;;;4.30;;
5965;SDS011;3009;43.224;27.976;2023-03-14T01:38:59;7.23;;;4.80;;
5965;SDS011;3009;43.224;27.976;2023-03-14T01:41:27;5.20;;;4.57;;
5965;SDS011;3009;43.224;27.976;2023-03-14T01:43:56;6.97;;;3.83;;
5965;SDS011;3009;43.224;27.976;2023-03-14T01:46:33;6.23;;;4.63;;
5965;SDS011;3009;43.224;27.976;2023-03-14T01:49:10;8.40;;;4.13;;
5965;SDS011;3009;43.224;27.976;2023-03-14T01:51:44;5.33;;;4.07;;
5965;SDS011;3009;43.224;27.976;2023-03-14T01:54:18;6.80;;;4.30;;
5965;SDS011;3009;43.224;27.976;2023-03-14T01:56:50;5.00;;;4.57;;
5965;SDS011;3009;43.224;27.976;2023-03-14T01:59:22;6.63;;;4.70;;
5965;SDS011;3009;43.224;27.976;2023-03-14T02:01:53;4.43;;;4.00;;
5965;SDS011;3009;43.224;27.976;2023-03-14T02:04:23;4.27;;;3.77;;
5965;SDS011;3009;43.224;27.976;2023-03-14T02:06:57;13.50;;;4.03;;
5965;SDS011;3009;43.224;27.976;2023-03-14T02:09:29;5.60;;;4.43;;
5965;SDS011;3009;43.224;27.976;2023-03-14T02:11:58;4.50;;;3.47;;
5965;SDS011;3009;43.224;27.976;2023-03-14T02:14:29;4.33;;;3.53;;
5965;SDS011;3009;43.224;27.976;2023-03-14T02:17:01;6.10;;;3.70;;
5965;SDS011;3009;43.224;27.976;2023-03-14T02:19:39;9.00;;;4.10;;
5965;SDS011;3009;43.224;27.976;2023-03-14T02:22:28;3.13;;;2.83;;
5965;SDS011;3009;43.224;27.976;2023-03-14T02:24:58;4.00;;;2.87;;
5965;SDS011;3009;43.224;27.976;2023-03-14T02:27:36;3.57;;;3.27;;
5965;SDS011;3009;43.224;27.976;2023-03-14T02:30:06;3.03;;;2.83;;
5965;SDS011;3009;43.224;27.976;2023-03-14T02:32:39;5.20;;;3.00;;
5965;SDS011;3009;43.224;27.976;2023-03-14T02:35:13;3.70;;;3.40;;
5965;SDS011;3009;43.224;27.976;2023-03-14T02:37:46;7.13;;;3.40;;
5965;SDS011;3009;43.224;27.976;2023-03-14T02:40:19;6.90;;;4.60;;
5965;SDS011;3009;43.224;27.976;2023-03-14T02:42:49;6.97;;;3.40;;
5965;SDS011;3009;43.224;27.976;2023-03-14T02:45:33;9.43;;;3.30;;
5965;SDS011;3009;43.224;27.976;2023-03-14T02:48:13;2.93;;;2.63;;
5965;SDS011;3009;43.224;27.976;2023-03-14T02:50:44;3.90;;;3.60;;
5965;SDS011;3009;43.224;27.976;2023-03-14T02:53:16;4.83;;;3.37;;
5965;SDS011;3009;43.224;27.976;2023-03-14T02:55:47;7.57;;;4.00;;
5965;SDS011;3009;43.224;27.976;2023-03-14T02:58:17;3.30;;;3.10;;
5965;SDS011;3009;43.224;27.976;2023-03-14T03:00:46;3.30;;;3.00;;
5965;SDS011;3009;43.224;27.976;2023-03-14T03:03:15;3.33;;;3.07;;
5965;SDS011;3009;43.224;27.976;2023-03-14T03:05:47;3.73;;;2.97;;
5965;SDS011;3009;43.224;27.976;2023-03-14T03:08:17;4.53;;;3.43;;
5965;SDS011;3009;43.224;27.976;2023-03-14T03:10:46;3.00;;;2.70;;
5965;SDS011;3009;43.224;27.976;2023-03-14T03:13:14;3.10;;;2.90;;
5965;SDS011;3009;43.224;27.976;2023-03-14T03:15:45;5.37;;;3.00;;
5965;SDS011;3009;43.224;27.976;2023-03-14T03:18:14;3.60;;;3.30;;
5965;SDS011;3009;43.224;27.976;2023-03-14T03:20:42;10.93;;;2.73;;
5965;SDS011;3009;43.224;27.976;2023-03-14T03:23:10;3.40;;;3.10;;
5965;SDS011;3009;43.224;27.976;2023-03-14T03:25:39;4.60;;;4.10;;
5965;SDS011;3009;43.224;27.976;2023-03-14T03:28:07;4.23;;;3.83;;
5965;SDS011;3009;43.224;27.976;2023-03-14T03:30:39;4.53;;;4.07;;
5965;SDS011;3009;43.224;27.976;2023-03-14T03:33:09;5.77;;;4.13;;
5965;SDS011;3009;43.224;27.976;2023-03-14T03:35:42;4.93;;;4.43;;
5965;SDS011;3009;43.224;27.976;2023-03-14T03:38:12;7.63;;;4.10;;
5965;SDS011;3009;43.224;27.976;2023-03-14T03:40:41;7.17;;;5.80;;
5965;SDS011;3009;43.224;27.976;2023-03-14T03:43:10;9.90;;;4.80;;
5965;SDS011;3009;43.224;27.976;2023-03-14T03:45:41;5.53;;;4.70;;
5965;SDS011;3009;43.224;27.976;2023-03-14T03:48:11;5.93;;;4.37;;
5965;SDS011;3009;43.224;27.976;2023-03-14T03:50:43;6.90;;;4.10;;
5965;SDS011;3009;43.224;27.976;2023-03-14T03:53:12;6.70;;;4.67;;
5965;SDS011;3009;43.224;27.976;2023-03-14T03:55:48;22.77;;;5.03;;
5965;SDS011;3009;43.224;27.976;2023-03-14T03:58:17;5.33;;;4.10;;
5965;SDS011;3009;43.224;27.976;2023-03-14T04:00:46;7.27;;;4.70;;
5965;SDS011;3009;43.224;27.976;2023-03-14T04:03:15;6.50;;;4.60;;
5965;SDS011;3009;43.224;27.976;2023-03-14T04:05:44;5.30;;;3.90;;
5965;SDS011;3009;43.224;27.976;2023-03-14T04:08:13;4.37;;;4.00;;
5965;SDS011;3009;43.224;27.976;2023-03-14T04:10:42;9.60;;;4.50;;
5965;SDS011;3009;43.224;27.976;2023-03-14T04:13:10;11.73;;;5.10;;
5965;SDS011;3009;43.224;27.976;2023-03-14T04:15:39;7.00;;;5.17;;
5965;SDS011;3009;43.224;27.976;2023-03-14T04:18:08;11.47;;;5.00;;
5965;SDS011;3009;43.224;27.976;2023-03-14T04:20:38;6.57;;;5.17;;
5965;SDS011;3009;43.224;27.976;2023-03-14T04:23:06;11.90;;;5.60;;
5965;SDS011;3009;43.224;27.976;2023-03-14T04:25:34;9.73;;;5.80;;
5965;SDS011;3009;43.224;27.976;2023-03-14T04:28:03;12.77;;;5.67;;
5965;SDS011;3009;43.224;27.976;2023-03-14T04:30:31;9.10;;;6.43;;
5965;SDS011;3009;43.224;27.976;2023-03-14T04:33:00;10.40;;;6.60;;
5965;SDS011;3009;43.224;27.976;2023-03-14T04:35:30;17.17;;;8.40;;
5965;SDS011;3009;43.224;27.976;2023-03-14T04:38:00;18.13;;;7.50;;
5965;SDS011;3009;43.224;27.976;2023-03-14T04:40:29;12.17;;;7.67;;
5965;SDS011;3009;43.224;27.976;2023-03-14T04:42:57;22.50;;;9.70;;
5965;SDS011;3009;43.224;27.976;2023-03-14T04:45:27;14.97;;;8.77;;
5965;SDS011;3009;43.224;27.976;2023-03-14T04:47:56;16.83;;;8.87;;
5965;SDS011;3009;43.224;27.976;2023-03-14T04:50:24;12.57;;;6.57;;
5965;SDS011;3009;43.224;27.976;2023-03-14T04:52:54;47.73;;;17.50;;
5965;SDS011;3009;43.224;27.976;2023-03-14T04:55:25;28.53;;;10.13;;
5965;SDS011;3009;43.224;27.976;2023-03-14T04:57:54;9.30;;;6.37;;
5965;SDS011;3009;43.224;27.976;2023-03-14T05:00:22;6.90;;;4.87;;
5965;SDS011;3009;43.224;27.976;2023-03-14T05:02:50;4.67;;;4.20;;
5965;SDS011;3009;43.224;27.976;2023-03-14T05:05:19;9.73;;;4.27;;
5965;SDS011;3009;43.224;27.976;2023-03-14T05:07:48;4.83;;;4.40;;
5965;SDS011;3009;43.224;27.976;2023-03-14T05:10:16;7.30;;;4.17;;
5965;SDS011;3009;43.224;27.976;2023-03-14T05:12:46;5.20;;;3.70;;
5965;SDS011;3009;43.224;27.976;2023-03-14T05:15:15;10.77;;;5.40;;
5965;SDS011;3009;43.224;27.976;2023-03-14T05:17:43;7.70;;;4.23;;
5965;SDS011;3009;43.224;27.976;2023-03-14T05:20:13;6.10;;;3.70;;
5965;SDS011;3009;43.224;27.976;2023-03-14T05:22:42;8.27;;;3.30;;
5965;SDS011;3009;43.224;27.976;2023-03-14T05:25:12;27.03;;;3.80;;
5965;SDS011;3009;43.224;27.976;2023-03-14T05:27:41;3.43;;;3.10;;
5965;SDS011;3009;43.224;27.976;2023-03-14T05:30:11;2.90;;;2.70;;
5965;SDS011;3009;43.224;27.976;2023-03-14T05:32:41;2.60;;;2.50;;
5965;SDS011;3009;43.224;27.976;2023-03-14T05:35:11;3.40;;;3.10;;
5965;SDS011;3009;43.224;27.976;2023-03-14T05:37:39;5.47;;;2.73;;
5965;SDS011;3009;43.224;27.976;2023-03-14T05:40:08;4.60;;;2.70;;
5965;SDS011;3009;43.224;27.976;2023-03-14T05:42:37;3.00;;;2.27;;
5965;SDS011;3009;43.224;27.976;2023-03-14T05:45:06;2.90;;;2.30;;
5965;SDS011;3009;43.224;27.976;2023-03-14T05:47:36;7.73;;;3.17;;
5965;SDS011;3009;43.224;27.976;2023-03-14T05:50:05;5.73;;;2.73;;
5965;SDS011;3009;43.224;27.976;2023-03-14T05:52:34;3.00;;;2.17;;
5965;SDS011;3009;43.224;27.976;2023-03-14T05:55:02;2.70;;;2.00;;
5965;SDS011;3009;43.224;27.976;2023-03-14T05:57:31;2.70;;;2.50;;
5965;SDS011;3009;43.224;27.976;2023-03-14T05:59:59;2.13;;;2.03;;
5965;SDS011;3009;43.224;27.976;2023-03-14T06:02:28;2.43;;;2.23;;
5965;SDS011;3009;43.224;27.976;2023-03-14T06:04:58;2.80;;;2.60;;
5965;SDS011;3009;43.224;27.976;2023-03-14T06:07:26;4.00;;;3.27;;
5965;SDS011;3009;43.224;27.976;2023-03-14T06:09:55;6.63;;;3.37;;
5965;SDS011;3009;43.224;27.976;2023-03-14T06:12:24;3.60;;;2.90;;
5965;SDS011;3009;43.224;27.976;2023-03-14T06:14:53;4.50;;;3.20;;
5965;SDS011;3009;43.224;27.976;2023-03-14T06:17:22;3.00;;;2.73;;
5965;SDS011;3009;43.224;27.976;2023-03-14T06:19:51;7.63;;;2.93;;
5965;SDS011;3009;43.224;27.976;2023-03-14T06:22:21;6.03;;;2.90;;
5965;SDS011;3009;43.224;27.976;2023-03-14T06:24:50;3.10;;;2.87;;
5965;SDS011;3009;43.224;27.976;2023-03-14T06:27:21;4.30;;;3.47;;
5965;SDS011;3009;43.224;27.976;2023-03-14T06:29:50;2.53;;;2.43;;
5965;SDS011;3009;43.224;27.976;2023-03-14T06:32:20;3.43;;;3.13;;
5965;SDS011;3009;43.224;27.976;2023-03-14T06:34:50;6.13;;;2.90;;
5965;SDS011;3009;43.224;27.976;2023-03-14T06:37:21;3.17;;;2.50;;
5965;SDS011;3009;43.224;27.976;2023-03-14T06:39:49;3.17;;;2.97;;
5965;SDS011;3009;43.224;27.976;2023-03-14T06:42:19;3.03;;;2.63;;
5965;SDS011;3009;43.224;27.976;2023-03-14T06:44:49;3.83;;;3.30;;
5965;SDS011;3009;43.224;27.976;2023-03-14T06:47:18;3.40;;;3.20;;
5965;SDS011;3009;43.224;27.976;2023-03-14T06:49:47;5.70;;;3.00;;
5965;SDS011;3009;43.224;27.976;2023-03-14T06:52:17;2.50;;;2.40;;
5965;SDS011;3009;43.224;27.976;2023-03-14T06:54:48;2.90;;;2.70;;
5965;SDS011;3009;43.224;27.976;2023-03-14T06:57:16;3.03;;;2.70;;
5965;SDS011;3009;43.224;27.976;2023-03-14T06:59:45;7.83;;;3.10;;
5965;SDS011;3009;43.224;27.976;2023-03-14T07:02:13;3.00;;;2.80;;
5965;SDS011;3009;43.224;27.976;2023-03-14T07:04:41;4.23;;;3.83;;
5965;SDS011;3009;43.224;27.976;2023-03-14T07:07:10;3.03;;;2.83;;
5965;SDS011;3009;43.224;27.976;2023-03-14T07:09:38;4.47;;;2.73;;
5965;SDS011;3009;43.224;27.976;2023-03-14T07:12:08;3.40;;;3.20;;
5965;SDS011;3009;43.224;27.976;2023-03-14T07:14:36;2.90;;;2.70;;
5965;SDS011;3009;43.224;27.976;2023-03-14T07:17:06;2.27;;;2.17;;
5965;SDS011;3009;43.224;27.976;2023-03-14T07:19:35;2.30;;;2.20;;
5965;SDS011;3009;43.224;27.976;2023-03-14T07:22:04;4.63;;;2.77;;
5965;SDS011;3009;43.224;27.976;2023-03-14T07:24:33;3.67;;;2.40;;
5965;SDS011;3009;43.224;27.976;2023-03-14T07:27:02;2.87;;;2.20;;
5965;SDS011;3009;43.224;27.976;2023-03-14T07:29:34;3.43;;;3.23;;
5965;SDS011;3009;43.224;27.976;2023-03-14T07:32:02;2.20;;;2.10;;
5965;SDS011;3009;43.224;27.976;2023-03-14T07:34:32;2.10;;;2.00;;
5965;SDS011;3009;43.224;27.976;2023-03-14T07:37:01;2.33;;;2.13;;
5965;SDS011;3009;43.224;27.976;2023-03-14T07:39:31;2.03;;;1.80;;
5965;SDS011;3009;43.224;27.976;2023-03-14T07:41:59;2.70;;;2.20;;
5965;SDS011;3009;43.224;27.976;2023-03-14T07:44:35;2.33;;;2.20;;
5965;SDS011;3009;43.224;27.976;2023-03-14T07:47:04;2.43;;;2.13;;
5965;SDS011;3009;43.224;27.976;2023-03-14T07:49:32;3.23;;;2.27;;
5965;SDS011;3009;43.224;27.976;2023-03-14T07:52:01;2.47;;;2.30;;
5965;SDS011;3009;43.224;27.976;2023-03-14T07:54:30;2.33;;;2.07;;
5965;SDS011;3009;43.224;27.976;2023-03-14T07:56:58;3.27;;;2.97;;
5965;SDS011;3009;43.224;27.976;2023-03-14T07:59:30;5.23;;;2.03;;
5965;SDS011;3009;43.224;27.976;2023-03-14T08:02:00;4.80;;;2.37;;
5965;SDS011;3009;43.224;27.976;2023-03-14T08:04:28;3.93;;;2.53;;
5965;SDS011;3009;43.224;27.976;2023-03-14T08:07:00;4.23;;;2.27;;
5965;SDS011;3009;43.224;27.976;2023-03-14T08:09:29;6.40;;;2.90;;
5965;SDS011;3009;43.224;27.976;2023-03-14T08:11:58;5.73;;;2.53;;
5965;SDS011;3009;43.224;27.976;2023-03-14T08:14:26;3.17;;;2.23;;
5965;SDS011;3009;43.224;27.976;2023-03-14T08:16:57;2.60;;;1.90;;
5965;SDS011;3009;43.224;27.976;2023-03-14T08:19:27;2.13;;;1.93;;
5965;SDS011;3009;43.224;27.976;2023-03-14T08:21:55;2.53;;;2.43;;
5965;SDS011;3009;43.224;27.976;2023-03-14T08:24:24;2.80;;;2.60;;
5965;SDS011;3009;43.224;27.976;2023-03-14T08:26:52;5.80;;;3.40;;
5965;SDS011;3009;43.224;27.976;2023-03-14T08:29:22;2.60;;;1.90;;
5965;SDS011;3009;43.224;27.976;2023-03-14T08:31:51;3.20;;;2.17;;
5965;SDS011;3009;43.224;27.976;2023-03-14T08:34:21;3.50;;;1.70;;
5965;SDS011;3009;43.224;27.976;2023-03-14T08:36:51;2.80;;;2.10;;
5965;SDS011;3009;43.224;27.976;2023-03-14T08:39:22;1.87;;;1.77;;
5965;SDS011;3009;43.224;27.976;2023-03-14T08:41:51;4.70;;;2.20;;
5965;SDS011;3009;43.224;27.976;2023-03-14T08:44:19;2.60;;;2.20;;
5965;SDS011;3009;43.224;27.976;2023-03-14T08:46:48;2.90;;;2.70;;
5965;SDS011;3009;43.224;27.976;2023-03-14T08:49:17;2.67;;;2.43;;
5965;SDS011;3009;43.224;27.976;2023-03-14T08:51:46;5.17;;;1.97;;
5965;SDS011;3009;43.224;27.976;2023-03-14T08:54:16;2.40;;;2.23;;
5965;SDS011;3009;43.224;27.976;2023-03-14T08:56:45;2.03;;;1.93;;
5965;SDS011;3009;43.224;27.976;2023-03-14T08:59:13;2.67;;;1.70;;
5965;SDS011;3009;43.224;27.976;2023-03-14T09:01:42;4.60;;;2.47;;
5965;SDS011;3009;43.224;27.976;2023-03-14T09:04:10;1.93;;;1.83;;
5965;SDS011;3009;43.224;27.976;2023-03-14T09:06:40;2.30;;;2.10;;
5965;SDS011;3009;43.224;27.976;2023-03-14T09:09:08;2.40;;;1.70;;
5965;SDS011;3009;43.224;27.976;2023-03-14T09:11:38;2.23;;;2.03;;
5965;SDS011;3009;43.224;27.976;2023-03-14T09:14:07;2.00;;;1.90;;
5965;SDS011;3009;43.224;27.976;2023-03-14T09:16:36;2.13;;;1.80;;
5965;SDS011;3009;43.224;27.976;2023-03-14T09:19:05;2.10;;;2.00;;
5965;SDS011;3009;43.224;27.976;2023-03-14T09:21:34;2.23;;;2.03;;
5965;SDS011;3009;43.224;27.976;2023-03-14T09:24:04;2.53;;;2.43;;
5965;SDS011;3009;43.224;27.976;2023-03-14T09:26:33;3.50;;;2.20;;
5965;SDS011;3009;43.224;27.976;2023-03-14T09:29:03;2.10;;;2.00;;
5965;SDS011;3009;43.224;27.976;2023-03-14T09:31:31;2.23;;;2.13;;
5965;SDS011;3009;43.224;27.976;2023-03-14T09:34:00;6.63;;;2.30;;
5965;SDS011;3009;43.224;27.976;2023-03-14T09:36:29;2.23;;;2.03;;
5965;SDS011;3009;43.224;27.976;2023-03-14T09:38:59;2.20;;;1.60;;
5965;SDS011;3009;43.224;27.976;2023-03-14T09:41:29;2.57;;;2.37;;
5965;SDS011;3009;43.224;27.976;2023-03-14T09:44:03;4.30;;;2.13;;
5965;SDS011;3009;43.224;27.976;2023-03-14T09:46:36;8.07;;;2.57;;
5965;SDS011;3009;43.224;27.976;2023-03-14T09:49:11;2.10;;;1.80;;
5965;SDS011;3009;43.224;27.976;2023-03-14T09:51:44;9.77;;;2.37;;
5965;SDS011;3009;43.224;27.976;2023-03-14T09:54:17;2.70;;;2.03;;
5965;SDS011;3009;43.224;27.976;2023-03-14T09:56:57;5.07;;;1.90;;
5965;SDS011;3009;43.224;27.976;2023-03-14T09:59:28;2.30;;;1.90;;
5965;SDS011;3009;43.224;27.976;2023-03-14T10:01:58;1.80;;;1.70;;
5965;SDS011;3009;43.224;27.976;2023-03-14T10:04:29;2.30;;;2.10;;
5965;SDS011;3009;43.224;27.976;2023-03-14T10:06:59;2.20;;;2.10;;
5965;SDS011;3009;43.224;27.976;2023-03-14T10:09:30;2.10;;;2.00;;
5965;SDS011;3009;43.224;27.976;2023-03-14T10:12:02;4.07;;;2.10;;
5965;SDS011;3009;43.224;27.976;2023-03-14T10:14:37;3.73;;;2.30;;
5965;SDS011;3009;43.224;27.976;2023-03-14T10:17:13;1.80;;;1.70;;
5965;SDS011;3009;43.224;27.976;2023-03-14T10:19:53;2.13;;;2.03;;
5965;SDS011;3009;43.224;27.976;2023-03-14T10:22:24;3.87;;;1.83;;
5965;SDS011;3009;43.224;27.976;2023-03-14T10:24:59;2.30;;;1.77;;
5965;SDS011;3009;43.224;27.976;2023-03-14T10:27:31;2.30;;;2.20;;
5965;SDS011;3009;43.224;27.976;2023-03-14T10:30:03;2.60;;;1.97;;
5965;SDS011;3009;43.224;27.976;2023-03-14T10:32:35;2.13;;;2.03;;
5965;SDS011;3009;43.224;27.976;2023-03-14T10:35:18;1.87;;;1.80;;
5965;SDS011;3009;43.224;27.976;2023-03-14T10:37:48;3.40;;;1.80;;
5965;SDS011;3009;43.224;27.976;2023-03-14T10:40:22;2.60;;;1.80;;
5965;SDS011;3009;43.224;27.976;2023-03-14T10:42:55;2.93;;;1.77;;
5965;SDS011;3009;43.224;27.976;2023-03-14T10:45:31;2.30;;;1.80;;
5965;SDS011;3009;43.224;27.976;2023-03-14T10:50:50;5.13;;;2.13;;
5965;SDS011;3009;43.224;27.976;2023-03-14T10:53:23;2.00;;;1.90;;
5965;SDS011;3009;43.224;27.976;2023-03-14T10:55:55;2.40;;;2.30;;
5965;SDS011;3009;43.224;27.976;2023-03-14T10:58:26;2.17;;;1.73;;
5965;SDS011;3009;43.224;27.976;2023-03-14T11:01:02;2.63;;;2.23;;
5965;SDS011;3009;43.224;27.976;2023-03-14T11:03:40;2.77;;;1.93;;
5965;SDS011;3009;43.224;27.976;2023-03-14T11:06:17;7.30;;;2.10;;
5965;SDS011;3009;43.224;27.976;2023-03-14T11:08:53;2.10;;;1.77;;
5965;SDS011;3009;43.224;27.976;2023-03-14T11:11:27;2.83;;;2.27;;
5965;SDS011;3009;43.224;27.976;2023-03-14T11:14:03;2.17;;;2.00;;
5965;SDS011;3009;43.224;27.976;2023-03-14T11:16:46;2.60;;;2.40;;
5965;SDS011;3009;43.224;27.976;2023-03-14T11:19:28;2.73;;;1.93;;
5965;SDS011;3009;43.224;27.976;2023-03-14T11:22:06;1.87;;;1.80;;
5965;SDS011;3009;43.224;27.976;2023-03-14T11:24:49;3.03;;;1.70;;
5965;SDS011;3009;43.224;27.976;2023-03-14T11:27:40;2.00;;;1.90;;
5965;SDS011;3009;43.224;27.976;2023-03-14T11:30:17;1.97;;;1.87;;
5965;SDS011;3009;43.224;27.976;2023-03-14T11:32:53;10.27;;;2.03;;
5965;SDS011;3009;43.224;27.976;2023-03-14T11:35:28;2.60;;;1.70;;
5965;SDS011;3009;43.224;27.976;2023-03-14T11:38:18;3.33;;;2.23;;
5965;SDS011;3009;43.224;27.976;2023-03-14T11:40:55;2.53;;;1.73;;
5965;SDS011;3009;43.224;27.976;2023-03-14T11:43:28;1.80;;;1.70;;
5965;SDS011;3009;43.224;27.976;2023-03-14T11:46:01;2.13;;;1.97;;
5965;SDS011;3009;43.224;27.976;2023-03-14T11:48:38;5.47;;;2.00;;
5965;SDS011;3009;43.224;27.976;2023-03-14T11:51:12;2.40;;;2.20;;
5965;SDS011;3009;43.224;27.976;2023-03-14T11:53:48;3.23;;;2.50;;
5965;SDS011;3009;43.224;27.976;2023-03-14T11:56:24;4.50;;;2.17;;
5965;SDS011;3009;43.224;27.976;2023-03-14T11:58:58;2.73;;;2.30;;
5965;SDS011;3009;43.224;27.976;2023-03-14T12:01:36;5.33;;;2.23;;
5965;SDS011;3009;43.224;27.976;2023-03-14T12:04:25;2.03;;;1.80;;
5965;SDS011;3009;43.224;27.976;2023-03-14T12:07:06;2.00;;;2.00;;
5965;SDS011;3009;43.224;27.976;2023-03-14T12:09:42;6.73;;;2.03;;
5965;SDS011;3009;43.224;27.976;2023-03-14T12:12:12;2.20;;;1.70;;
5965;SDS011;3009;43.224;27.976;2023-03-14T12:14:47;2.30;;;2.10;;
5965;SDS011;3009;43.224;27.976;2023-03-14T12:17:23;2.67;;;1.83;;
5965;SDS011;3009;43.224;27.976;2023-03-14T12:20:03;6.43;;;2.60;;
5965;SDS011;3009;43.224;27.976;2023-03-14T12:22:41;2.77;;;2.23;;
5965;SDS011;3009;43.224;27.976;2023-03-14T12:25:15;2.43;;;2.23;;
5965;SDS011;3009;43.224;27.976;2023-03-14T12:27:48;1.93;;;1.83;;
5965;SDS011;3009;43.224;27.976;2023-03-14T12:30:41;1.93;;;1.83;;
5965;SDS011;3009;43.224;27.976;2023-03-14T12:36:02;3.37;;;1.80;;
5965;SDS011;3009;43.224;27.976;2023-03-14T12:38:59;3.93;;;2.03;;
5965;SDS011;3009;43.224;27.976;2023-03-14T12:41:36;2.40;;;2.23;;
5965;SDS011;3009;43.224;27.976;2023-03-14T12:50:19;2.70;;;2.00;;
5965;SDS011;3009;43.224;27.976;2023-03-14T12:53:08;2.00;;;2.00;;
5965;SDS011;3009;43.224;27.976;2023-03-14T12:59:26;1.90;;;1.80;;
5965;SDS011;3009;43.224;27.976;2023-03-14T13:01:59;2.30;;;1.63;;
5965;SDS011;3009;43.224;27.976;2023-03-14T13:04:32;2.23;;;2.03;;
5965;SDS011;3009;43.224;27.976;2023-03-14T13:07:10;4.13;;;1.80;;
5965;SDS011;3009;43.224;27.976;2023-03-14T13:12:37;3.03;;;2.33;;
5965;SDS011;3009;43.224;27.976;2023-03-14T13:15:15;3.20;;;2.00;;
5965;SDS011;3009;43.224;27.976;2023-03-14T13:17:50;3.50;;;2.03;;
5965;SDS011;3009;43.224;27.976;2023-03-14T13:20:23;2.00;;;1.90;;
5965;SDS011;3009;43.224;27.976;2023-03-14T13:22:57;5.40;;;2.73;;
5965;SDS011;3009;43.224;27.976;2023-03-14T13:25:30;3.17;;;1.70;;
5965;SDS011;3009;43.224;27.976;2023-03-14T13:28:01;1.73;;;1.63;;
5965;SDS011;3009;43.224;27.976;2023-03-14T13:30:35;2.80;;;1.90;;
5965;SDS011;3009;43.224;27.976;2023-03-14T13:33:11;5.50;;;2.33;;
5965;SDS011;3009;43.224;27.976;2023-03-14T13:35:42;3.80;;;2.10;;
5965;SDS011;3009;43.224;27.976;2023-03-14T13:38:16;3.60;;;2.20;;
5965;SDS011;3009;43.224;27.976;2023-03-14T13:40:48;1.90;;;1.80;;
5965;SDS011;3009;43.224;27.976;2023-03-14T13:43:18;1.97;;;1.87;;
5965;SDS011;3009;43.224;27.976;2023-03-14T13:45:53;3.23;;;2.17;;
5965;SDS011;3009;43.224;27.976;2023-03-14T13:48:26;2.30;;;2.10;;
5965;SDS011;3009;43.224;27.976;2023-03-14T13:50:56;1.80;;;1.70;;
5965;SDS011;3009;43.224;27.976;2023-03-14T13:53:28;2.13;;;1.93;;
5965;SDS011;3009;43.224;27.976;2023-03-14T13:56:00;5.10;;;1.87;;
5965;SDS011;3009;43.224;27.976;2023-03-14T13:58:30;1.93;;;1.93;;
5965;SDS011;3009;43.224;27.976;2023-03-14T14:01:00;2.47;;;1.73;;
5965;SDS011;3009;43.224;27.976;2023-03-14T14:03:32;1.60;;;1.60;;
5965;SDS011;3009;43.224;27.976;2023-03-14T14:06:07;2.10;;;1.77;;
5965;SDS011;3009;43.224;27.976;2023-03-14T14:08:40;2.47;;;1.63;;
5965;SDS011;3009;43.224;27.976;2023-03-14T14:11:13;2.00;;;1.90;;
5965;SDS011;3009;43.224;27.976;2023-03-14T14:13:53;1.87;;;1.77;;
5965;SDS011;3009;43.224;27.976;2023-03-14T14:16:23;1.93;;;1.80;;
5965;SDS011;3009;43.224;27.976;2023-03-14T14:18:54;2.17;;;2.03;;
5965;SDS011;3009;43.224;27.976;2023-03-14T14:21:24;3.47;;;1.70;;
5965;SDS011;3009;43.224;27.976;2023-03-14T14:23:54;5.20;;;2.27;;
5965;SDS011;3009;43.224;27.976;2023-03-14T14:26:24;2.50;;;2.00;;
5965;SDS011;3009;43.224;27.976;2023-03-14T14:28:58;6.30;;;2.13;;
5965;SDS011;3009;43.224;27.976;2023-03-14T14:31:29;4.57;;;1.93;;
5965;SDS011;3009;43.224;27.976;2023-03-14T14:33:58;2.30;;;2.00;;
5965;SDS011;3009;43.224;27.976;2023-03-14T14:36:28;1.77;;;1.77;;
5965;SDS011;3009;43.224;27.976;2023-03-14T14:39:03;2.43;;;2.23;;
5965;SDS011;3009;43.224;27.976;2023-03-14T14:41:39;6.87;;;1.90;;
5965;SDS011;3009;43.224;27.976;2023-03-14T14:44:11;6.10;;;1.90;;
5965;SDS011;3009;43.224;27.976;2023-03-14T14:46:43;3.73;;;1.80;;
5965;SDS011;3009;43.224;27.976;2023-03-14T14:49:16;2.13;;;1.93;;
5965;SDS011;3009;43.224;27.976;2023-03-14T14:51:48;1.63;;;1.43;;
5965;SDS011;3009;43.224;27.976;2023-03-14T14:54:18;2.40;;;1.80;;
5965;SDS011;3009;43.224;27.976;2023-03-14T14:57:03;2.03;;;1.43;;
5965;SDS011;3009;43.224;27.976;2023-03-14T14:59:41;2.50;;;1.80;;
5965;SDS011;3009;43.224;27.976;2023-03-14T15:02:22;6.33;;;2.37;;
5965;SDS011;3009;43.224;27.976;2023-03-14T15:04:57;2.93;;;2.27;;
5965;SDS011;3009;43.224;27.976;2023-03-14T15:07:26;1.67;;;1.60;;
5965;SDS011;3009;43.224;27.976;2023-03-14T15:09:54;3.73;;;1.77;;
5965;SDS011;3009;43.224;27.976;2023-03-14T15:12:24;4.33;;;1.60;;
5965;SDS011;3009;43.224;27.976;2023-03-14T15:14:53;2.30;;;1.80;;
5965;SDS011;3009;43.224;27.976;2023-03-14T15:17:24;1.40;;;1.40;;
5965;SDS011;3009;43.224;27.976;2023-03-14T15:19:52;3.10;;;1.43;;
5965;SDS011;3009;43.224;27.976;2023-03-14T15:22:22;2.40;;;2.30;;
5965;SDS011;3009;43.224;27.976;2023-03-14T15:24:51;4.13;;;1.57;;
5965;SDS011;3009;43.224;27.976;2023-03-14T15:27:20;3.20;;;1.67;;
5965;SDS011;3009;43.224;27.976;2023-03-14T15:29:50;4.90;;;2.00;;
5965;SDS011;3009;43.224;27.976;2023-03-14T15:32:19;2.50;;;1.63;;
5965;SDS011;3009;43.224;27.976;2023-03-14T15:34:47;4.03;;;1.90;;
5965;SDS011;3009;43.224;27.976;2023-03-14T15:37:16;3.50;;;1.80;;
5965;SDS011;3009;43.224;27.976;2023-03-14T15:39:45;4.87;;;2.47;;
5965;SDS011;3009;43.224;27.976;2023-03-14T15:42:16;16.40;;;10.00;;
5965;SDS011;3009;43.224;27.976;2023-03-14T15:44:44;6.40;;;5.77;;